sensor_id;sensor_type;location;lat;lon;timestamp;P1;durP1;ratioP1;P2;durP2;ratioP2
18383;SDS011;9318;48.644;9.456;2023-04-22T00:01:51;0.90;;;0.90;;
18383;SDS011;9318;48.644;9.456;2023-04-22T00:04:18;0.90;;;0.90;;
18383;SDS011;9318;48.644;9.456;2023-04-22T00:06:46;0.80;;;0.80;;
18383;SDS011;9318;48.644;9.456;2023-04-22T00:09:14;0.90;;;0.90;;
18383;SDS011;9318;48.644;9.456;2023-04-22T00:11:40;0.90;;;0.90;;
18383;SDS011;9318;48.644;9.456;2023-04-22T00:14:07;0.90;;;0.90;;
18383;SDS011;9318;48.644;9.456;2023-04-22T00:16:34;0.70;;;0.70;;
18383;SDS011;9318;48.644;9.456;2023-04-22T00:19:01;0.80;;;0.80;;
18383;SDS011;9318;48.644;9.456;2023-04-22T00:21:27;0.80;;;0.80;;
18383;SDS011;9318;48.644;9.456;2023-04-22T00:23:54;1.00;;;1.00;;
18383;SDS011;9318;48.644;9.456;2023-04-22T00:26:22;0.90;;;0.90;;
18383;SDS011;9318;48.644;9.456;2023-04-22T00:28:49;0.80;;;0.80;;
18383;SDS011;9318;48.644;9.456;2023-04-22T00:31:16;0.90;;;0.90;;
18383;SDS011;9318;48.644;9.456;2023-04-22T00:33:43;0.90;;;0.90;;
18383;SDS011;9318;48.644;9.456;2023-04-22T00:36:09;0.87;;;0.87;;
18383;SDS011;9318;48.644;9.456;2023-04-22T00:38:36;0.80;;;0.80;;
18383;SDS011;9318;48.644;9.456;2023-04-22T00:41:03;0.77;;;0.77;;
18383;SDS011;9318;48.644;9.456;2023-04-22T00:43:32;0.80;;;0.80;;
18383;SDS011;9318;48.644;9.456;2023-04-22T00:45:59;0.80;;;0.80;;
18383;SDS011;9318;48.644;9.456;2023-04-22T00:48:26;0.80;;;0.80;;
18383;SDS011;9318;48.644;9.456;2023-04-22T00:50:54;0.80;;;0.80;;
18383;SDS011;9318;48.644;9.456;2023-04-22T00:53:21;0.80;;;0.80;;
18383;SDS011;9318;48.644;9.456;2023-04-22T00:55:48;0.80;;;0.80;;
18383;SDS011;9318;48.644;9.456;2023-04-22T00:58:15;0.80;;;0.80;;
18383;SDS011;9318;48.644;9.456;2023-04-22T01:00:45;0.83;;;0.83;;
18383;SDS011;9318;48.644;9.456;2023-04-22T01:03:12;0.70;;;0.70;;
18383;SDS011;9318;48.644;9.456;2023-04-22T01:05:39;0.77;;;0.77;;
18383;SDS011;9318;48.644;9.456;2023-04-22T01:08:06;0.90;;;0.90;;
18383;SDS011;9318;48.644;9.456;2023-04-22T01:10:33;0.90;;;0.90;;
18383;SDS011;9318;48.644;9.456;2023-04-22T01:13:00;0.80;;;0.80;;
18383;SDS011;9318;48.644;9.456;2023-04-22T01:15:27;0.70;;;0.70;;
18383;SDS011;9318;48.644;9.456;2023-04-22T01:17:56;0.90;;;0.90;;
18383;SDS011;9318;48.644;9.456;2023-04-22T01:20:23;0.80;;;0.80;;
18383;SDS011;9318;48.644;9.456;2023-04-22T01:22:53;0.80;;;0.80;;
18383;SDS011;9318;48.644;9.456;2023-04-22T01:25:22;0.70;;;0.70;;
18383;SDS011;9318;48.644;9.456;2023-04-22T01:27:50;0.90;;;0.90;;
18383;SDS011;9318;48.644;9.456;2023-04-22T01:30:17;0.90;;;0.90;;
18383;SDS011;9318;48.644;9.456;2023-04-22T01:32:45;0.90;;;0.90;;
18383;SDS011;9318;48.644;9.456;2023-04-22T01:35:12;1.00;;;1.00;;
18383;SDS011;9318;48.644;9.456;2023-04-22T01:37:38;0.80;;;0.80;;
18383;SDS011;9318;48.644;9.456;2023-04-22T01:40:06;0.90;;;0.90;;
18383;SDS011;9318;48.644;9.456;2023-04-22T01:42:36;0.90;;;0.90;;
18383;SDS011;9318;48.644;9.456;2023-04-22T01:45:04;0.90;;;0.90;;
18383;SDS011;9318;48.644;9.456;2023-04-22T01:47:31;0.90;;;0.90;;
18383;SDS011;9318;48.644;9.456;2023-04-22T01:49:58;0.80;;;0.80;;
18383;SDS011;9318;48.644;9.456;2023-04-22T01:52:25;0.87;;;0.87;;
18383;SDS011;9318;48.644;9.456;2023-04-22T01:54:52;0.83;;;0.83;;
18383;SDS011;9318;48.644;9.456;2023-04-22T01:57:19;0.80;;;0.80;;
18383;SDS011;9318;48.644;9.456;2023-04-22T01:59:47;0.80;;;0.80;;
18383;SDS011;9318;48.644;9.456;2023-04-22T02:02:14;0.87;;;0.87;;
18383;SDS011;9318;48.644;9.456;2023-04-22T02:04:41;0.77;;;0.77;;
18383;SDS011;9318;48.644;9.456;2023-04-22T02:07:07;0.80;;;0.80;;
18383;SDS011;9318;48.644;9.456;2023-04-22T02:09:34;0.80;;;0.80;;
18383;SDS011;9318;48.644;9.456;2023-04-22T02:12:01;0.80;;;0.80;;
18383;SDS011;9318;48.644;9.456;2023-04-22T02:14:28;0.80;;;0.80;;
18383;SDS011;9318;48.644;9.456;2023-04-22T02:16:56;0.80;;;0.80;;
18383;SDS011;9318;48.644;9.456;2023-04-22T02:19:23;0.80;;;0.80;;
18383;SDS011;9318;48.644;9.456;2023-04-22T02:21:49;0.90;;;0.90;;
18383;SDS011;9318;48.644;9.456;2023-04-22T02:24:16;0.90;;;0.90;;
18383;SDS011;9318;48.644;9.456;2023-04-22T02:26:43;0.90;;;0.90;;
18383;SDS011;9318;48.644;9.456;2023-04-22T02:29:10;0.70;;;0.70;;
18383;SDS011;9318;48.644;9.456;2023-04-22T02:31:36;0.80;;;0.80;;
18383;SDS011;9318;48.644;9.456;2023-04-22T02:34:04;0.80;;;0.80;;
18383;SDS011;9318;48.644;9.456;2023-04-22T02:36:31;0.80;;;0.80;;
18383;SDS011;9318;48.644;9.456;2023-04-22T02:38:58;0.90;;;0.90;;
18383;SDS011;9318;48.644;9.456;2023-04-22T02:41:25;0.90;;;0.90;;
18383;SDS011;9318;48.644;9.456;2023-04-22T02:43:52;0.83;;;0.83;;
18383;SDS011;9318;48.644;9.456;2023-04-22T02:46:19;0.80;;;0.80;;
18383;SDS011;9318;48.644;9.456;2023-04-22T02:48:46;0.80;;;0.80;;
18383;SDS011;9318;48.644;9.456;2023-04-22T02:51:14;0.90;;;0.90;;
18383;SDS011;9318;48.644;9.456;2023-04-22T02:53:41;0.90;;;0.90;;
18383;SDS011;9318;48.644;9.456;2023-04-22T02:56:08;0.90;;;0.90;;
18383;SDS011;9318;48.644;9.456;2023-04-22T02:58:34;0.90;;;0.90;;
18383;SDS011;9318;48.644;9.456;2023-04-22T03:01:01;0.80;;;0.80;;
18383;SDS011;9318;48.644;9.456;2023-04-22T03:03:28;1.00;;;1.00;;
18383;SDS011;9318;48.644;9.456;2023-04-22T03:05:55;0.90;;;0.90;;
18383;SDS011;9318;48.644;9.456;2023-04-22T03:08:24;0.87;;;0.87;;
18383;SDS011;9318;48.644;9.456;2023-04-22T03:10:50;1.00;;;1.00;;
18383;SDS011;9318;48.644;9.456;2023-04-22T03:13:17;0.97;;;0.97;;
18383;SDS011;9318;48.644;9.456;2023-04-22T03:15:44;0.90;;;0.90;;
18383;SDS011;9318;48.644;9.456;2023-04-22T03:18:11;0.80;;;0.80;;
18383;SDS011;9318;48.644;9.456;2023-04-22T03:20:37;1.00;;;1.00;;
18383;SDS011;9318;48.644;9.456;2023-04-22T03:23:04;0.80;;;0.80;;
18383;SDS011;9318;48.644;9.456;2023-04-22T03:25:33;1.10;;;1.10;;
18383;SDS011;9318;48.644;9.456;2023-04-22T03:28:00;0.80;;;0.80;;
18383;SDS011;9318;48.644;9.456;2023-04-22T03:30:26;0.93;;;0.93;;
18383;SDS011;9318;48.644;9.456;2023-04-22T03:32:53;0.90;;;0.90;;
18383;SDS011;9318;48.644;9.456;2023-04-22T03:35:20;0.90;;;0.90;;
18383;SDS011;9318;48.644;9.456;2023-04-22T03:37:47;0.90;;;0.90;;
18383;SDS011;9318;48.644;9.456;2023-04-22T03:40:14;0.80;;;0.80;;
18383;SDS011;9318;48.644;9.456;2023-04-22T03:42:42;0.90;;;0.90;;
18383;SDS011;9318;48.644;9.456;2023-04-22T03:45:09;0.90;;;0.90;;
18383;SDS011;9318;48.644;9.456;2023-04-22T03:47:36;0.90;;;0.90;;
18383;SDS011;9318;48.644;9.456;2023-04-22T03:50:03;0.80;;;0.80;;
18383;SDS011;9318;48.644;9.456;2023-04-22T03:52:31;0.70;;;0.70;;
18383;SDS011;9318;48.644;9.456;2023-04-22T03:54:57;0.80;;;0.80;;
18383;SDS011;9318;48.644;9.456;2023-04-22T03:57:24;0.80;;;0.80;;
18383;SDS011;9318;48.644;9.456;2023-04-22T03:59:52;0.80;;;0.80;;
18383;SDS011;9318;48.644;9.456;2023-04-22T04:02:19;0.90;;;0.90;;
18383;SDS011;9318;48.644;9.456;2023-04-22T04:04:46;1.00;;;1.00;;
18383;SDS011;9318;48.644;9.456;2023-04-22T04:07:12;0.90;;;0.90;;
18383;SDS011;9318;48.644;9.456;2023-04-22T04:09:40;1.00;;;1.00;;
18383;SDS011;9318;48.644;9.456;2023-04-22T04:12:06;0.90;;;0.90;;
18383;SDS011;9318;48.644;9.456;2023-04-22T04:14:33;0.80;;;0.80;;
18383;SDS011;9318;48.644;9.456;2023-04-22T04:17:01;0.90;;;0.90;;
18383;SDS011;9318;48.644;9.456;2023-04-22T04:19:28;0.80;;;0.80;;
18383;SDS011;9318;48.644;9.456;2023-04-22T04:21:56;0.83;;;0.83;;
18383;SDS011;9318;48.644;9.456;2023-04-22T04:24:23;0.90;;;0.90;;
18383;SDS011;9318;48.644;9.456;2023-04-22T04:26:49;0.90;;;0.90;;
18383;SDS011;9318;48.644;9.456;2023-04-22T04:29:17;0.80;;;0.80;;
18383;SDS011;9318;48.644;9.456;2023-04-22T04:31:45;0.90;;;0.90;;
18383;SDS011;9318;48.644;9.456;2023-04-22T04:34:13;0.97;;;0.97;;
18383;SDS011;9318;48.644;9.456;2023-04-22T04:36:40;1.20;;;1.20;;
18383;SDS011;9318;48.644;9.456;2023-04-22T04:39:07;0.90;;;0.90;;
18383;SDS011;9318;48.644;9.456;2023-04-22T04:41:34;0.90;;;0.90;;
18383;SDS011;9318;48.644;9.456;2023-04-22T04:44:02;1.00;;;1.00;;
18383;SDS011;9318;48.644;9.456;2023-04-22T04:46:29;0.90;;;0.90;;
18383;SDS011;9318;48.644;9.456;2023-04-22T04:48:56;0.90;;;0.90;;
18383;SDS011;9318;48.644;9.456;2023-04-22T04:51:24;0.90;;;0.90;;
18383;SDS011;9318;48.644;9.456;2023-04-22T04:53:51;0.90;;;0.90;;
18383;SDS011;9318;48.644;9.456;2023-04-22T04:56:18;0.90;;;0.90;;
18383;SDS011;9318;48.644;9.456;2023-04-22T04:58:44;0.87;;;0.87;;
18383;SDS011;9318;48.644;9.456;2023-04-22T05:01:11;1.00;;;1.00;;
18383;SDS011;9318;48.644;9.456;2023-04-22T05:03:38;1.00;;;1.00;;
18383;SDS011;9318;48.644;9.456;2023-04-22T05:06:05;0.90;;;0.90;;
18383;SDS011;9318;48.644;9.456;2023-04-22T05:08:33;1.00;;;1.00;;
18383;SDS011;9318;48.644;9.456;2023-04-22T05:11:00;1.00;;;1.00;;
18383;SDS011;9318;48.644;9.456;2023-04-22T05:13:27;0.90;;;0.90;;
18383;SDS011;9318;48.644;9.456;2023-04-22T05:15:54;1.00;;;1.00;;
18383;SDS011;9318;48.644;9.456;2023-04-22T05:18:21;0.90;;;0.90;;
18383;SDS011;9318;48.644;9.456;2023-04-22T05:20:47;0.70;;;0.70;;
18383;SDS011;9318;48.644;9.456;2023-04-22T05:23:14;0.77;;;0.77;;
18383;SDS011;9318;48.644;9.456;2023-04-22T05:25:42;0.90;;;0.90;;
18383;SDS011;9318;48.644;9.456;2023-04-22T05:28:09;0.90;;;0.90;;
18383;SDS011;9318;48.644;9.456;2023-04-22T05:30:36;0.90;;;0.90;;
18383;SDS011;9318;48.644;9.456;2023-04-22T05:33:03;0.80;;;0.80;;
18383;SDS011;9318;48.644;9.456;2023-04-22T05:35:30;0.80;;;0.80;;
18383;SDS011;9318;48.644;9.456;2023-04-22T05:37:56;0.80;;;0.80;;
18383;SDS011;9318;48.644;9.456;2023-04-22T05:40:23;1.00;;;1.00;;
18383;SDS011;9318;48.644;9.456;2023-04-22T05:42:51;0.90;;;0.90;;
18383;SDS011;9318;48.644;9.456;2023-04-22T05:45:18;0.80;;;0.80;;
18383;SDS011;9318;48.644;9.456;2023-04-22T05:47:45;0.90;;;0.90;;
18383;SDS011;9318;48.644;9.456;2023-04-22T05:50:11;0.80;;;0.80;;
18383;SDS011;9318;48.644;9.456;2023-04-22T05:52:39;0.90;;;0.90;;
18383;SDS011;9318;48.644;9.456;2023-04-22T05:55:06;0.83;;;0.83;;
18383;SDS011;9318;48.644;9.456;2023-04-22T05:57:33;0.90;;;0.90;;
18383;SDS011;9318;48.644;9.456;2023-04-22T06:00:01;0.80;;;0.80;;
18383;SDS011;9318;48.644;9.456;2023-04-22T06:02:28;0.80;;;0.80;;
18383;SDS011;9318;48.644;9.456;2023-04-22T06:04:55;0.90;;;0.90;;
18383;SDS011;9318;48.644;9.456;2023-04-22T06:07:22;0.80;;;0.80;;
18383;SDS011;9318;48.644;9.456;2023-04-22T06:09:49;0.90;;;0.90;;
18383;SDS011;9318;48.644;9.456;2023-04-22T06:12:16;0.90;;;0.90;;
18383;SDS011;9318;48.644;9.456;2023-04-22T06:14:43;0.70;;;0.70;;
18383;SDS011;9318;48.644;9.456;2023-04-22T06:17:11;0.70;;;0.70;;
18383;SDS011;9318;48.644;9.456;2023-04-22T06:19:38;0.70;;;0.70;;
18383;SDS011;9318;48.644;9.456;2023-04-22T06:22:05;0.80;;;0.80;;
18383;SDS011;9318;48.644;9.456;2023-04-22T06:24:32;0.90;;;0.90;;
18383;SDS011;9318;48.644;9.456;2023-04-22T06:26:58;0.70;;;0.70;;
18383;SDS011;9318;48.644;9.456;2023-04-22T06:29:26;0.90;;;0.90;;
18383;SDS011;9318;48.644;9.456;2023-04-22T06:31:53;0.80;;;0.80;;
18383;SDS011;9318;48.644;9.456;2023-04-22T06:34:21;0.80;;;0.80;;
18383;SDS011;9318;48.644;9.456;2023-04-22T06:36:48;0.70;;;0.70;;
18383;SDS011;9318;48.644;9.456;2023-04-22T06:39:15;0.70;;;0.70;;
18383;SDS011;9318;48.644;9.456;2023-04-22T06:41:42;0.70;;;0.70;;
18383;SDS011;9318;48.644;9.456;2023-04-22T06:44:09;0.70;;;0.70;;
18383;SDS011;9318;48.644;9.456;2023-04-22T06:46:36;0.70;;;0.70;;
18383;SDS011;9318;48.644;9.456;2023-04-22T06:49:03;0.80;;;0.80;;
18383;SDS011;9318;48.644;9.456;2023-04-22T06:51:31;0.70;;;0.70;;
18383;SDS011;9318;48.644;9.456;2023-04-22T06:53:58;0.73;;;0.73;;
18383;SDS011;9318;48.644;9.456;2023-04-22T06:56:24;0.60;;;0.60;;
18383;SDS011;9318;48.644;9.456;2023-04-22T06:58:51;0.70;;;0.70;;
18383;SDS011;9318;48.644;9.456;2023-04-22T07:01:18;0.60;;;0.60;;
18383;SDS011;9318;48.644;9.456;2023-04-22T07:03:45;0.60;;;0.60;;
18383;SDS011;9318;48.644;9.456;2023-04-22T07:06:12;0.60;;;0.60;;
18383;SDS011;9318;48.644;9.456;2023-04-22T07:08:40;0.60;;;0.60;;
18383;SDS011;9318;48.644;9.456;2023-04-22T07:11:07;0.60;;;0.60;;
18383;SDS011;9318;48.644;9.456;2023-04-22T07:13:34;0.60;;;0.60;;
18383;SDS011;9318;48.644;9.456;2023-04-22T07:16:01;0.50;;;0.50;;
18383;SDS011;9318;48.644;9.456;2023-04-22T07:18:28;0.63;;;0.63;;
18383;SDS011;9318;48.644;9.456;2023-04-22T07:20:54;0.60;;;0.60;;
18383;SDS011;9318;48.644;9.456;2023-04-22T07:23:21;0.75;;;0.75;;
18383;SDS011;9318;48.644;9.456;2023-04-22T07:25:49;0.50;;;0.50;;
18383;SDS011;9318;48.644;9.456;2023-04-22T07:28:16;0.65;;;0.65;;
18383;SDS011;9318;48.644;9.456;2023-04-22T07:30:43;0.57;;;0.57;;
18383;SDS011;9318;48.644;9.456;2023-04-22T07:33:10;0.50;;;0.50;;
18383;SDS011;9318;48.644;9.456;2023-04-22T07:35:37;0.50;;;0.50;;
18383;SDS011;9318;48.644;9.456;2023-04-22T07:38:04;0.50;;;0.50;;
18383;SDS011;9318;48.644;9.456;2023-04-22T07:40:30;0.50;;;0.50;;
18383;SDS011;9318;48.644;9.456;2023-04-22T07:42:59;0.40;;;0.40;;
18383;SDS011;9318;48.644;9.456;2023-04-22T07:45:25;0.40;;;0.40;;
18383;SDS011;9318;48.644;9.456;2023-04-22T07:47:52;0.50;;;0.50;;
18383;SDS011;9318;48.644;9.456;2023-04-22T07:50:19;0.50;;;0.50;;
18383;SDS011;9318;48.644;9.456;2023-04-22T07:52:46;0.40;;;0.40;;
18383;SDS011;9318;48.644;9.456;2023-04-22T07:55:13;0.50;;;0.50;;
18383;SDS011;9318;48.644;9.456;2023-04-22T07:57:39;0.47;;;0.47;;
18383;SDS011;9318;48.644;9.456;2023-04-22T08:00:08;0.40;;;0.40;;
18383;SDS011;9318;48.644;9.456;2023-04-22T08:02:36;0.50;;;0.50;;
18383;SDS011;9318;48.644;9.456;2023-04-22T08:05:03;0.50;;;0.50;;
18383;SDS011;9318;48.644;9.456;2023-04-22T08:07:30;0.40;;;0.40;;
18383;SDS011;9318;48.644;9.456;2023-04-22T08:09:57;0.32;;;0.32;;
18383;SDS011;9318;48.644;9.456;2023-04-22T08:12:24;0.40;;;0.40;;
18383;SDS011;9318;48.644;9.456;2023-04-22T08:14:50;0.40;;;0.40;;
18383;SDS011;9318;48.644;9.456;2023-04-22T08:17:19;0.40;;;0.40;;
18383;SDS011;9318;48.644;9.456;2023-04-22T08:19:46;0.50;;;0.50;;
18383;SDS011;9318;48.644;9.456;2023-04-22T08:22:13;0.40;;;0.40;;
18383;SDS011;9318;48.644;9.456;2023-04-22T08:24:41;0.47;;;0.47;;
18383;SDS011;9318;48.644;9.456;2023-04-22T08:27:08;0.45;;;0.45;;
18383;SDS011;9318;48.644;9.456;2023-04-22T08:29:35;0.40;;;0.40;;
18383;SDS011;9318;48.644;9.456;2023-04-22T08:32:02;0.40;;;0.40;;
18383;SDS011;9318;48.644;9.456;2023-04-22T08:34:30;0.50;;;0.50;;
18383;SDS011;9318;48.644;9.456;2023-04-22T08:36:57;0.40;;;0.40;;
18383;SDS011;9318;48.644;9.456;2023-04-22T08:39:24;0.40;;;0.40;;
18383;SDS011;9318;48.644;9.456;2023-04-22T08:41:50;0.30;;;0.30;;
18383;SDS011;9318;48.644;9.456;2023-04-22T08:44:19;0.40;;;0.40;;
18383;SDS011;9318;48.644;9.456;2023-04-22T08:46:47;0.50;;;0.50;;
18383;SDS011;9318;48.644;9.456;2023-04-22T08:49:14;0.50;;;0.50;;
18383;SDS011;9318;48.644;9.456;2023-04-22T08:51:43;0.40;;;0.40;;
18383;SDS011;9318;48.644;9.456;2023-04-22T08:54:10;0.40;;;0.40;;
18383;SDS011;9318;48.644;9.456;2023-04-22T08:56:38;0.32;;;0.32;;
18383;SDS011;9318;48.644;9.456;2023-04-22T08:59:08;0.38;;;0.38;;
18383;SDS011;9318;48.644;9.456;2023-04-22T09:01:35;0.40;;;0.40;;
18383;SDS011;9318;48.644;9.456;2023-04-22T09:04:03;0.32;;;0.32;;
18383;SDS011;9318;48.644;9.456;2023-04-22T09:06:32;0.40;;;0.40;;
18383;SDS011;9318;48.644;9.456;2023-04-22T09:09:00;0.32;;;0.32;;
18383;SDS011;9318;48.644;9.456;2023-04-22T09:11:27;0.30;;;0.30;;
18383;SDS011;9318;48.644;9.456;2023-04-22T09:13:54;0.30;;;0.30;;
18383;SDS011;9318;48.644;9.456;2023-04-22T09:16:21;0.30;;;0.30;;
18383;SDS011;9318;48.644;9.456;2023-04-22T09:18:48;0.25;;;0.25;;
18383;SDS011;9318;48.644;9.456;2023-04-22T09:21:15;0.30;;;0.30;;
18383;SDS011;9318;48.644;9.456;2023-04-22T09:23:44;0.20;;;0.20;;
18383;SDS011;9318;48.644;9.456;2023-04-22T09:26:13;0.22;;;0.22;;
18383;SDS011;9318;48.644;9.456;2023-04-22T09:28:47;0.20;;;0.20;;
18383;SDS011;9318;48.644;9.456;2023-04-22T09:31:18;0.30;;;0.30;;
18383;SDS011;9318;48.644;9.456;2023-04-22T09:33:47;0.20;;;0.20;;
18383;SDS011;9318;48.644;9.456;2023-04-22T09:36:14;0.20;;;0.20;;
18383;SDS011;9318;48.644;9.456;2023-04-22T09:38:50;0.20;;;0.20;;
18383;SDS011;9318;48.644;9.456;2023-04-22T09:41:19;0.20;;;0.20;;
18383;SDS011;9318;48.644;9.456;2023-04-22T09:43:53;0.20;;;0.20;;
18383;SDS011;9318;48.644;9.456;2023-04-22T09:46:21;0.20;;;0.20;;
18383;SDS011;9318;48.644;9.456;2023-04-22T09:48:48;0.20;;;0.20;;
18383;SDS011;9318;48.644;9.456;2023-04-22T09:51:16;0.20;;;0.20;;
18383;SDS011;9318;48.644;9.456;2023-04-22T09:53:43;0.28;;;0.28;;
18383;SDS011;9318;48.644;9.456;2023-04-22T09:56:23;0.30;;;0.30;;
18383;SDS011;9318;48.644;9.456;2023-04-22T09:59:05;0.20;;;0.20;;
18383;SDS011;9318;48.644;9.456;2023-04-22T10:01:34;0.30;;;0.30;;
18383;SDS011;9318;48.644;9.456;2023-04-22T10:04:01;0.20;;;0.20;;
18383;SDS011;9318;48.644;9.456;2023-04-22T10:06:28;0.20;;;0.20;;
18383;SDS011;9318;48.644;9.456;2023-04-22T10:08:56;0.30;;;0.30;;
18383;SDS011;9318;48.644;9.456;2023-04-22T10:11:25;0.20;;;0.20;;
18383;SDS011;9318;48.644;9.456;2023-04-22T10:13:52;0.30;;;0.30;;
18383;SDS011;9318;48.644;9.456;2023-04-22T10:16:19;0.20;;;0.20;;
18383;SDS011;9318;48.644;9.456;2023-04-22T10:18:47;0.30;;;0.30;;
18383;SDS011;9318;48.644;9.456;2023-04-22T10:21:16;0.25;;;0.25;;
18383;SDS011;9318;48.644;9.456;2023-04-22T10:23:44;0.20;;;0.20;;
18383;SDS011;9318;48.644;9.456;2023-04-22T10:26:12;0.20;;;0.20;;
18383;SDS011;9318;48.644;9.456;2023-04-22T10:29:00;0.20;;;0.20;;
18383;SDS011;9318;48.644;9.456;2023-04-22T10:31:30;0.30;;;0.30;;
18383;SDS011;9318;48.644;9.456;2023-04-22T10:34:07;0.28;;;0.28;;
18383;SDS011;9318;48.644;9.456;2023-04-22T10:36:45;0.30;;;0.30;;
18383;SDS011;9318;48.644;9.456;2023-04-22T10:39:18;0.20;;;0.20;;
18383;SDS011;9318;48.644;9.456;2023-04-22T10:41:49;0.30;;;0.30;;
18383;SDS011;9318;48.644;9.456;2023-04-22T10:44:19;0.30;;;0.30;;
18383;SDS011;9318;48.644;9.456;2023-04-22T10:46:59;0.30;;;0.30;;
18383;SDS011;9318;48.644;9.456;2023-04-22T10:49:29;0.30;;;0.30;;
18383;SDS011;9318;48.644;9.456;2023-04-22T10:51:57;0.30;;;0.30;;
18383;SDS011;9318;48.644;9.456;2023-04-22T10:57:28;0.38;;;0.38;;
18383;SDS011;9318;48.644;9.456;2023-04-22T11:03:07;0.30;;;0.30;;
18383;SDS011;9318;48.644;9.456;2023-04-22T11:05:36;0.30;;;0.30;;
18383;SDS011;9318;48.644;9.456;2023-04-22T11:08:04;0.30;;;0.30;;
18383;SDS011;9318;48.644;9.456;2023-04-22T11:10:34;0.30;;;0.30;;
18383;SDS011;9318;48.644;9.456;2023-04-22T11:13:05;0.40;;;0.40;;
18383;SDS011;9318;48.644;9.456;2023-04-22T11:15:33;0.35;;;0.35;;
18383;SDS011;9318;48.644;9.456;2023-04-22T11:18:05;0.40;;;0.40;;
18383;SDS011;9318;48.644;9.456;2023-04-22T11:20:34;0.30;;;0.30;;
18383;SDS011;9318;48.644;9.456;2023-04-22T11:23:01;0.30;;;0.30;;
18383;SDS011;9318;48.644;9.456;2023-04-22T11:25:28;0.30;;;0.30;;
18383;SDS011;9318;48.644;9.456;2023-04-22T11:27:55;0.30;;;0.30;;
18383;SDS011;9318;48.644;9.456;2023-04-22T11:30:23;0.40;;;0.40;;
18383;SDS011;9318;48.644;9.456;2023-04-22T11:32:52;0.40;;;0.40;;
18383;SDS011;9318;48.644;9.456;2023-04-22T11:35:22;0.30;;;0.30;;
18383;SDS011;9318;48.644;9.456;2023-04-22T11:37:51;0.30;;;0.30;;
18383;SDS011;9318;48.644;9.456;2023-04-22T11:40:20;0.35;;;0.35;;
18383;SDS011;9318;48.644;9.456;2023-04-22T11:42:49;0.30;;;0.30;;
18383;SDS011;9318;48.644;9.456;2023-04-22T11:45:16;0.40;;;0.40;;
18383;SDS011;9318;48.644;9.456;2023-04-22T11:47:43;0.30;;;0.30;;
18383;SDS011;9318;48.644;9.456;2023-04-22T11:50:11;0.30;;;0.30;;
18383;SDS011;9318;48.644;9.456;2023-04-22T11:52:48;0.30;;;0.30;;
18383;SDS011;9318;48.644;9.456;2023-04-22T11:55:18;0.40;;;0.40;;
18383;SDS011;9318;48.644;9.456;2023-04-22T11:57:50;0.30;;;0.30;;
18383;SDS011;9318;48.644;9.456;2023-04-22T12:00:21;0.35;;;0.35;;
18383;SDS011;9318;48.644;9.456;2023-04-22T12:02:55;0.40;;;0.40;;
18383;SDS011;9318;48.644;9.456;2023-04-22T12:05:32;0.40;;;0.40;;
18383;SDS011;9318;48.644;9.456;2023-04-22T12:08:09;0.40;;;0.40;;
18383;SDS011;9318;48.644;9.456;2023-04-22T12:10:40;0.30;;;0.30;;
18383;SDS011;9318;48.644;9.456;2023-04-22T12:13:08;0.40;;;0.40;;
18383;SDS011;9318;48.644;9.456;2023-04-22T12:15:36;0.40;;;0.40;;
18383;SDS011;9318;48.644;9.456;2023-04-22T12:18:04;0.40;;;0.40;;
18383;SDS011;9318;48.644;9.456;2023-04-22T12:20:32;0.30;;;0.30;;
18383;SDS011;9318;48.644;9.456;2023-04-22T12:22:59;0.40;;;0.40;;
18383;SDS011;9318;48.644;9.456;2023-04-22T12:25:27;0.30;;;0.30;;
18383;SDS011;9318;48.644;9.456;2023-04-22T12:27:54;0.40;;;0.40;;
18383;SDS011;9318;48.644;9.456;2023-04-22T12:30:21;0.40;;;0.40;;
18383;SDS011;9318;48.644;9.456;2023-04-22T12:32:49;0.45;;;0.45;;
18383;SDS011;9318;48.644;9.456;2023-04-22T12:35:15;0.40;;;0.40;;
18383;SDS011;9318;48.644;9.456;2023-04-22T12:37:42;0.40;;;0.40;;
18383;SDS011;9318;48.644;9.456;2023-04-22T12:40:09;0.40;;;0.40;;
18383;SDS011;9318;48.644;9.456;2023-04-22T12:42:37;0.35;;;0.35;;
18383;SDS011;9318;48.644;9.456;2023-04-22T12:45:04;0.40;;;0.40;;
18383;SDS011;9318;48.644;9.456;2023-04-22T12:47:33;0.40;;;0.40;;
18383;SDS011;9318;48.644;9.456;2023-04-22T12:49:59;0.30;;;0.30;;
18383;SDS011;9318;48.644;9.456;2023-04-22T12:52:30;0.30;;;0.30;;
18383;SDS011;9318;48.644;9.456;2023-04-22T12:54:57;0.30;;;0.30;;
18383;SDS011;9318;48.644;9.456;2023-04-22T12:57:24;0.35;;;0.35;;
18383;SDS011;9318;48.644;9.456;2023-04-22T13:03:02;0.40;;;0.40;;
18383;SDS011;9318;48.644;9.456;2023-04-22T13:05:29;0.40;;;0.40;;
18383;SDS011;9318;48.644;9.456;2023-04-22T13:07:56;0.40;;;0.40;;
18383;SDS011;9318;48.644;9.456;2023-04-22T13:10:23;0.30;;;0.30;;
18383;SDS011;9318;48.644;9.456;2023-04-22T13:12:52;0.38;;;0.38;;
18383;SDS011;9318;48.644;9.456;2023-04-22T13:15:19;0.40;;;0.40;;
18383;SDS011;9318;48.644;9.456;2023-04-22T13:17:46;0.50;;;0.50;;
18383;SDS011;9318;48.644;9.456;2023-04-22T13:20:14;0.40;;;0.40;;
18383;SDS011;9318;48.644;9.456;2023-04-22T13:22:41;0.40;;;0.40;;
18383;SDS011;9318;48.644;9.456;2023-04-22T13:25:08;0.40;;;0.40;;
18383;SDS011;9318;48.644;9.456;2023-04-22T13:27:35;0.40;;;0.40;;
18383;SDS011;9318;48.644;9.456;2023-04-22T13:30:02;0.40;;;0.40;;
18383;SDS011;9318;48.644;9.456;2023-04-22T13:32:30;0.30;;;0.30;;
18383;SDS011;9318;48.644;9.456;2023-04-22T13:34:57;0.35;;;0.35;;
18383;SDS011;9318;48.644;9.456;2023-04-22T13:37:25;0.30;;;0.30;;
18383;SDS011;9318;48.644;9.456;2023-04-22T13:39:52;0.30;;;0.30;;
18383;SDS011;9318;48.644;9.456;2023-04-22T13:42:19;0.30;;;0.30;;
18383;SDS011;9318;48.644;9.456;2023-04-22T13:44:45;0.40;;;0.40;;
18383;SDS011;9318;48.644;9.456;2023-04-22T13:47:12;0.40;;;0.40;;
18383;SDS011;9318;48.644;9.456;2023-04-22T13:49:39;0.40;;;0.40;;
18383;SDS011;9318;48.644;9.456;2023-04-22T13:52:05;0.30;;;0.30;;
18383;SDS011;9318;48.644;9.456;2023-04-22T13:54:33;0.40;;;0.40;;
18383;SDS011;9318;48.644;9.456;2023-04-22T13:57:00;0.30;;;0.30;;
18383;SDS011;9318;48.644;9.456;2023-04-22T13:59:27;0.40;;;0.40;;
18383;SDS011;9318;48.644;9.456;2023-04-22T14:01:55;0.40;;;0.40;;
18383;SDS011;9318;48.644;9.456;2023-04-22T14:04:22;0.43;;;0.43;;
18383;SDS011;9318;48.644;9.456;2023-04-22T14:06:49;0.40;;;0.40;;
18383;SDS011;9318;48.644;9.456;2023-04-22T14:09:16;0.35;;;0.35;;
18383;SDS011;9318;48.644;9.456;2023-04-22T14:11:44;0.40;;;0.40;;
18383;SDS011;9318;48.644;9.456;2023-04-22T14:14:10;0.40;;;0.40;;
18383;SDS011;9318;48.644;9.456;2023-04-22T14:16:37;0.50;;;0.50;;
18383;SDS011;9318;48.644;9.456;2023-04-22T14:19:04;0.50;;;0.50;;
18383;SDS011;9318;48.644;9.456;2023-04-22T14:21:32;0.43;;;0.43;;
18383;SDS011;9318;48.644;9.456;2023-04-22T14:23:59;0.30;;;0.30;;
18383;SDS011;9318;48.644;9.456;2023-04-22T14:26:26;0.30;;;0.30;;
18383;SDS011;9318;48.644;9.456;2023-04-22T14:28:54;0.40;;;0.40;;
18383;SDS011;9318;48.644;9.456;2023-04-22T14:31:21;0.40;;;0.40;;
18383;SDS011;9318;48.644;9.456;2023-04-22T14:33:48;0.40;;;0.40;;
18383;SDS011;9318;48.644;9.456;2023-04-22T14:36:16;0.50;;;0.50;;
18383;SDS011;9318;48.644;9.456;2023-04-22T14:38:43;0.40;;;0.40;;
18383;SDS011;9318;48.644;9.456;2023-04-22T14:41:10;0.55;;;0.55;;
18383;SDS011;9318;48.644;9.456;2023-04-22T14:43:37;0.30;;;0.30;;
18383;SDS011;9318;48.644;9.456;2023-04-22T14:46:05;0.38;;;0.38;;
18383;SDS011;9318;48.644;9.456;2023-04-22T14:48:31;0.40;;;0.40;;
18383;SDS011;9318;48.644;9.456;2023-04-22T14:50:59;0.40;;;0.40;;
18383;SDS011;9318;48.644;9.456;2023-04-22T14:53:26;0.40;;;0.40;;
18383;SDS011;9318;48.644;9.456;2023-04-22T14:55:53;0.30;;;0.30;;
18383;SDS011;9318;48.644;9.456;2023-04-22T14:58:20;0.50;;;0.50;;
18383;SDS011;9318;48.644;9.456;2023-04-22T15:00:47;0.40;;;0.40;;
18383;SDS011;9318;48.644;9.456;2023-04-22T15:03:16;0.40;;;0.40;;
18383;SDS011;9318;48.644;9.456;2023-04-22T15:05:42;0.30;;;0.30;;
18383;SDS011;9318;48.644;9.456;2023-04-22T15:08:13;0.45;;;0.45;;
18383;SDS011;9318;48.644;9.456;2023-04-22T15:10:39;0.50;;;0.50;;
18383;SDS011;9318;48.644;9.456;2023-04-22T15:13:06;0.32;;;0.32;;